createdAt,value
2019-01-20T00:01:42.537Z,47.63
2019-01-20T00:04:10.720Z,48.60
2019-01-20T00:06:38.947Z,46.80
2019-01-20T00:09:09.139Z,47.43
2019-01-20T00:11:37.349Z,46.60
2019-01-20T00:14:05.636Z,45.10
2019-01-20T00:16:33.853Z,44.23
2019-01-20T00:19:02.046Z,44.20
2019-01-20T00:21:30.232Z,42.40
2019-01-20T00:23:58.452Z,51.73
2019-01-20T00:26:26.665Z,45.33
2019-01-20T00:28:54.854Z,40.05
2019-01-20T00:31:23.041Z,39.80
2019-01-20T00:36:18.621Z,51.50
2019-01-20T00:38:46.808Z,43.70
2019-01-20T00:41:15.033Z,49.05
2019-01-20T00:43:43.245Z,48.10
2019-01-20T00:46:11.501Z,56.57
2019-01-20T00:48:39.709Z,52.47
2019-01-20T00:51:07.967Z,43.30
2019-01-20T00:53:36.184Z,46.60
2019-01-20T00:56:04.439Z,46.73
2019-01-20T00:58:32.628Z,46.77
2019-01-20T01:01:00.841Z,47.37
2019-01-20T01:03:30.053Z,45.13
2019-01-20T01:05:59.807Z,50.73
2019-01-20T01:08:28.028Z,59.67
2019-01-20T01:10:56.213Z,51.17
2019-01-20T01:13:24.438Z,49.23
2019-01-20T01:15:52.645Z,46.97
2019-01-20T01:18:20.885Z,37.67
2019-01-20T01:20:49.059Z,44.13
2019-01-20T01:23:17.281Z,42.43
2019-01-20T01:25:45.472Z,51.10
2019-01-20T01:28:13.696Z,44.63
2019-01-20T01:30:41.909Z,50.77
2019-01-20T01:33:10.121Z,43.73
2019-01-20T01:35:38.342Z,55.23
2019-01-20T01:38:06.520Z,48.90
2019-01-20T01:40:34.715Z,50.57
2019-01-20T01:43:02.898Z,50.23
2019-01-20T01:45:31.128Z,46.10
2019-01-20T01:47:59.306Z,54.10
2019-01-20T01:50:27.561Z,54.97
2019-01-20T01:52:55.747Z,53.27
2019-01-20T01:55:23.929Z,55.80
2019-01-20T01:57:52.122Z,49.20
2019-01-20T02:00:21.277Z,45.83
2019-01-20T02:02:49.484Z,53.33
2019-01-20T02:05:18.040Z,55.23
2019-01-20T02:07:46.251Z,51.43
2019-01-20T02:10:15.980Z,50.13
2019-01-20T02:12:44.222Z,57.57
2019-01-20T02:15:13.571Z,51.67
2019-01-20T02:17:41.755Z,58.67
2019-01-20T02:20:11.536Z,55.37
2019-01-20T02:22:42.731Z,58.53
2019-01-20T02:25:10.957Z,56.00
2019-01-20T02:27:39.178Z,53.07
2019-01-20T02:30:08.908Z,54.43
2019-01-20T02:32:37.369Z,46.27
2019-01-20T02:35:05.861Z,61.17
2019-01-20T02:37:34.044Z,50.43
2019-01-20T02:40:02.241Z,52.03
2019-01-20T02:42:31.953Z,55.43
2019-01-20T02:45:00.441Z,55.10
2019-01-20T02:47:28.658Z,46.83
2019-01-20T02:49:56.877Z,64.83
2019-01-20T02:52:25.094Z,55.60
2019-01-20T02:54:53.380Z,50.00
2019-01-20T02:57:21.596Z,55.07
2019-01-20T02:59:49.810Z,52.80
2019-01-20T03:02:18.029Z,62.77
2019-01-20T03:04:46.203Z,49.47
2019-01-20T03:07:14.400Z,51.90
2019-01-20T03:09:42.623Z,48.27
2019-01-20T03:12:10.812Z,55.97
2019-01-20T03:14:39.004Z,56.10
2019-01-20T03:17:07.225Z,56.27
2019-01-20T03:19:35.441Z,52.60
2019-01-20T03:22:03.723Z,62.77
2019-01-20T03:24:31.940Z,51.67
2019-01-20T03:27:00.154Z,60.87
2019-01-20T03:29:28.453Z,60.03
2019-01-20T03:31:56.633Z,57.30
2019-01-20T03:34:24.872Z,50.20
2019-01-20T03:36:53.089Z,58.40
2019-01-20T03:39:21.306Z,58.23
2019-01-20T03:41:49.594Z,54.43
2019-01-20T03:44:17.793Z,57.03
2019-01-20T03:46:45.979Z,57.10
2019-01-20T03:49:14.186Z,58.53
2019-01-20T03:51:42.397Z,51.37
2019-01-20T03:54:10.685Z,52.57
2019-01-20T03:56:38.866Z,51.40
2019-01-20T03:59:07.049Z,60.20
2019-01-20T04:01:35.280Z,56.20
2019-01-20T04:04:03.660Z,58.97
2019-01-20T04:06:31.856Z,53.03
2019-01-20T04:09:00.117Z,52.47
2019-01-20T04:11:28.326Z,58.20
2019-01-20T04:13:56.537Z,51.67
2019-01-20T04:16:24.730Z,55.50
2019-01-20T04:18:52.941Z,54.90
2019-01-20T04:21:21.148Z,54.83
2019-01-20T04:23:50.224Z,58.00
2019-01-20T04:26:18.599Z,63.60
2019-01-20T04:28:46.822Z,53.77
2019-01-20T04:31:15.042Z,56.10
2019-01-20T04:33:43.235Z,63.20
2019-01-20T04:36:11.450Z,60.40
2019-01-20T04:38:39.641Z,54.10
2019-01-20T04:41:07.857Z,57.37
2019-01-20T04:43:36.128Z,66.83
2019-01-20T04:46:04.480Z,64.50
2019-01-20T04:48:32.667Z,54.90
2019-01-20T04:51:00.867Z,62.70
2019-01-20T04:53:29.320Z,67.87
2019-01-20T04:55:57.548Z,57.03
2019-01-20T04:58:25.825Z,58.10
2019-01-20T05:00:54.024Z,60.17
2019-01-20T05:03:22.253Z,60.70
2019-01-20T05:05:50.478Z,62.17
2019-01-20T05:08:18.670Z,64.20
2019-01-20T05:10:46.885Z,61.83
2019-01-20T05:13:15.139Z,62.20
2019-01-20T05:15:43.316Z,61.40
2019-01-20T05:18:11.535Z,61.70
2019-01-20T05:20:39.756Z,61.30
2019-01-20T05:23:07.972Z,57.60
2019-01-20T05:30:30.832Z,62.70
2019-01-20T05:32:59.060Z,56.03
2019-01-20T05:35:27.296Z,61.60
2019-01-20T05:52:39.568Z,64.70
2019-01-20T06:04:57.235Z,71.77
2019-01-20T06:22:09.596Z,58.00
2019-01-20T06:46:45.870Z,64.30
2019-01-20T06:54:08.787Z,68.80
2019-01-20T06:56:36.968Z,64.00
2019-01-20T06:59:05.201Z,75.57
2019-01-20T07:01:33.496Z,63.83
2019-01-20T07:04:01.681Z,72.13
2019-01-20T07:06:29.900Z,68.83
2019-01-20T07:08:58.139Z,71.63
2019-01-20T07:11:26.360Z,60.97
2019-01-20T07:13:54.551Z,62.43
2019-01-20T07:16:22.752Z,63.90
2019-01-20T07:18:50.978Z,66.57
2019-01-20T07:21:19.173Z,64.63
2019-01-20T07:23:47.389Z,65.60
2019-01-20T07:26:15.577Z,64.13
2019-01-20T07:28:43.813Z,76.13
2019-01-20T07:31:12.008Z,73.60
2019-01-20T07:33:41.022Z,63.17
2019-01-20T07:36:09.213Z,72.73
2019-01-20T07:38:37.404Z,64.40
2019-01-20T07:41:05.624Z,78.60
2019-01-20T07:43:33.873Z,77.33
2019-01-20T07:46:02.128Z,63.50
2019-01-20T07:48:30.307Z,67.77
2019-01-20T07:50:58.545Z,68.97
2019-01-20T07:53:26.737Z,63.47
2019-01-20T07:55:54.928Z,78.03
2019-01-20T07:58:23.149Z,68.47
2019-01-20T08:00:51.336Z,70.90
2019-01-20T08:03:19.567Z,70.67
2019-01-20T08:05:47.780Z,70.73
2019-01-20T08:08:15.989Z,73.40
2019-01-20T08:10:44.180Z,64.10
2019-01-20T08:13:14.037Z,77.87
2019-01-20T08:15:43.149Z,69.40
2019-01-20T08:18:11.361Z,73.40
2019-01-20T08:20:39.552Z,77.83
2019-01-20T08:23:07.770Z,75.73
2019-01-20T08:25:35.955Z,64.77
2019-01-20T08:28:04.248Z,84.80
2019-01-20T08:30:32.494Z,76.47
2019-01-20T08:33:00.672Z,74.77
2019-01-20T08:35:28.856Z,71.67
2019-01-20T08:37:57.047Z,81.10
2019-01-20T08:40:26.428Z,73.33
2019-01-20T08:42:54.723Z,63.57
2019-01-20T08:45:27.474Z,65.07
2019-01-20T09:02:40.581Z,82.83
2019-01-20T09:05:10.263Z,83.57
2019-01-20T09:07:38.441Z,75.10
2019-01-20T09:10:10.973Z,75.87
2019-01-20T09:12:39.825Z,85.07
2019-01-20T09:15:08.218Z,76.97
2019-01-20T09:17:36.441Z,87.77
2019-01-20T09:20:06.269Z,86.70
2019-01-20T09:22:34.477Z,85.20
2019-01-20T09:25:02.668Z,83.77
2019-01-20T09:27:30.856Z,80.03
2019-01-20T09:29:59.072Z,82.70
2019-01-20T09:32:27.256Z,84.80
2019-01-20T09:34:55.477Z,94.87
2019-01-20T09:37:23.694Z,83.27
2019-01-20T09:39:51.876Z,89.37
2019-01-20T09:42:20.068Z,88.27
2019-01-20T09:44:48.293Z,93.30
2019-01-20T09:47:16.480Z,97.50
2019-01-20T09:49:44.676Z,92.07
2019-01-20T09:52:12.884Z,81.20
2019-01-20T09:54:41.170Z,93.93
2019-01-20T09:57:09.383Z,90.27
2019-01-20T09:59:37.602Z,97.23
2019-01-20T10:02:05.847Z,94.13
2019-01-20T10:04:34.078Z,96.80
2019-01-20T10:07:02.293Z,81.67
2019-01-20T10:09:30.521Z,87.13
2019-01-20T10:19:21.244Z,97.53
2019-01-20T10:21:49.468Z,94.90
2019-01-20T10:24:17.701Z,86.70
2019-01-20T10:26:45.884Z,99.33
2019-01-20T10:29:14.093Z,92.17
2019-01-20T10:31:42.296Z,92.20
2019-01-20T10:34:10.512Z,95.30
2019-01-20T10:36:38.748Z,97.80
2019-01-20T10:39:09.840Z,88.87
2019-01-20T10:41:38.073Z,105.50
2019-01-20T10:44:06.252Z,92.13
2019-01-20T10:46:34.481Z,99.03
2019-01-20T10:49:02.693Z,90.20
2019-01-20T10:51:30.884Z,93.10
2019-01-20T10:53:59.114Z,93.53
2019-01-20T10:56:27.307Z,96.80
2019-01-20T10:58:55.495Z,92.70
2019-01-20T11:01:23.717Z,88.03
2019-01-20T11:03:52.114Z,87.27
2019-01-20T11:06:20.333Z,84.27
2019-01-20T11:08:48.511Z,88.20
2019-01-20T11:11:16.749Z,88.97
2019-01-20T11:13:44.940Z,87.87
2019-01-20T11:16:13.204Z,86.60
2019-01-20T11:18:41.453Z,91.77
2019-01-20T11:21:09.632Z,80.50
2019-01-20T11:23:37.901Z,87.63
2019-01-20T11:26:06.091Z,80.27
2019-01-20T11:28:34.288Z,82.57
2019-01-20T11:31:02.480Z,76.00
2019-01-20T11:33:30.670Z,72.80
2019-01-20T11:35:58.860Z,75.33
2019-01-20T11:38:27.081Z,74.20
2019-01-20T11:40:55.273Z,69.67
2019-01-20T11:43:23.485Z,66.63
2019-01-20T11:45:51.720Z,71.63
2019-01-20T11:48:19.937Z,73.63
2019-01-20T11:50:48.110Z,66.50
2019-01-20T11:53:16.300Z,55.73
2019-01-20T11:55:44.489Z,64.23
2019-01-20T11:58:12.721Z,61.17
2019-01-20T12:00:40.931Z,60.03
2019-01-20T12:03:09.247Z,61.53
2019-01-20T12:05:37.491Z,64.00
2019-01-20T12:13:02.051Z,68.80
2019-01-20T15:03:05.601Z,43.40
2019-01-20T15:30:08.875Z,42.73
2019-01-20T15:32:37.105Z,43.60
2019-01-20T15:35:05.689Z,40.87
2019-01-20T15:37:33.905Z,40.20
2019-01-20T15:40:02.084Z,51.53
2019-01-20T15:42:30.324Z,37.80
2019-01-20T15:44:58.601Z,39.93
2019-01-20T15:47:26.788Z,44.13
2019-01-20T15:49:55.987Z,45.13
2019-01-20T15:52:24.183Z,45.10
2019-01-20T15:54:52.375Z,44.00
2019-01-20T15:57:20.596Z,44.73
2019-01-20T15:59:48.798Z,47.37
2019-01-20T16:02:17.013Z,42.43
2019-01-20T16:04:45.205Z,38.97
2019-01-20T16:07:13.429Z,45.13
2019-01-20T16:09:41.719Z,43.40
2019-01-20T16:12:09.904Z,41.93
2019-01-20T16:14:38.104Z,48.40
2019-01-20T16:17:06.292Z,46.50
2019-01-20T16:19:34.522Z,51.10
2019-01-20T16:22:02.722Z,42.07
2019-01-20T16:24:30.929Z,48.67
2019-01-20T16:27:01.004Z,48.00
2019-01-20T16:29:29.157Z,47.10
2019-01-20T16:31:57.377Z,42.30
2019-01-20T16:34:25.572Z,43.67
2019-01-20T16:36:53.785Z,42.03
2019-01-20T16:39:21.999Z,41.87
2019-01-20T16:41:50.225Z,41.40
2019-01-20T16:44:18.444Z,37.23
2019-01-20T16:46:46.676Z,41.03
2019-01-20T16:49:14.860Z,38.50
2019-01-20T16:51:43.103Z,42.30
2019-01-20T16:54:11.292Z,45.00
2019-01-20T16:56:39.481Z,42.30
2019-01-20T16:59:07.703Z,41.35
2019-01-20T17:01:35.892Z,37.63
2019-01-20T17:04:04.082Z,41.75
2019-01-20T17:06:32.280Z,42.03
2019-01-20T17:09:00.551Z,45.27
2019-01-20T17:11:28.728Z,43.70
2019-01-20T17:13:56.945Z,44.00
2019-01-20T17:16:25.143Z,42.90
2019-01-20T17:18:53.361Z,49.57
2019-01-20T17:21:21.560Z,45.67
2019-01-20T17:23:49.781Z,37.90
2019-01-20T17:26:17.975Z,40.97
2019-01-20T17:28:46.163Z,40.50
2019-01-20T17:31:14.407Z,37.60
2019-01-20T17:33:42.584Z,37.97
2019-01-20T17:36:10.776Z,38.67
2019-01-20T17:38:38.964Z,40.00
2019-01-20T17:41:07.148Z,48.67
2019-01-20T17:43:35.413Z,43.40
2019-01-20T17:46:04.166Z,49.30
2019-01-20T17:48:32.356Z,50.50
2019-01-20T17:51:00.552Z,52.20
2019-01-20T17:53:28.738Z,43.73
2019-01-20T17:55:56.938Z,46.10
2019-01-20T17:58:25.121Z,43.30
2019-01-20T18:00:54.996Z,39.97
2019-01-20T18:03:23.205Z,45.00
2019-01-20T18:05:51.424Z,44.00
2019-01-20T18:08:19.672Z,45.57
2019-01-20T18:10:47.890Z,43.83
2019-01-20T18:13:16.105Z,46.87
2019-01-20T18:15:44.313Z,46.70
2019-01-20T18:18:12.522Z,47.33
2019-01-20T18:20:40.736Z,49.37
2019-01-20T18:23:08.929Z,48.07
2019-01-20T18:25:37.155Z,51.10
2019-01-20T18:28:05.445Z,49.87
2019-01-20T18:30:33.717Z,44.70
2019-01-20T18:33:01.930Z,46.83
2019-01-20T18:35:30.153Z,48.20
2019-01-20T18:37:58.335Z,43.67
2019-01-20T18:40:27.129Z,42.57
2019-01-20T18:42:55.448Z,49.47
2019-01-20T18:45:25.086Z,45.60
2019-01-20T18:47:53.315Z,43.57
2019-01-20T18:50:22.868Z,37.53
2019-01-20T18:52:51.109Z,40.87
2019-01-20T18:55:19.980Z,42.27
2019-01-20T18:57:48.352Z,47.57
2019-01-20T19:00:27.459Z,45.40
2019-01-20T19:02:55.752Z,40.50
2019-01-20T19:05:23.948Z,48.43
2019-01-20T19:07:55.516Z,53.60
2019-01-20T19:10:22.431Z,49.23
2019-01-20T19:12:50.648Z,48.43
2019-01-20T19:15:19.742Z,47.37
2019-01-20T19:17:47.927Z,48.63
2019-01-20T19:20:20.471Z,44.50
2019-01-20T19:22:49.369Z,42.97
2019-01-20T19:25:17.661Z,49.20
2019-01-20T19:27:45.912Z,39.93
2019-01-20T19:30:21.572Z,52.77
2019-01-20T19:32:49.790Z,46.03
2019-01-20T19:35:18.081Z,46.73
2019-01-20T19:37:46.355Z,50.30
2019-01-20T19:40:15.011Z,44.87
2019-01-20T19:42:43.246Z,51.63
2019-01-20T19:45:18.219Z,41.97
2019-01-20T19:47:46.420Z,47.73
2019-01-20T19:50:15.471Z,49.40
2019-01-20T19:52:43.724Z,49.37
2019-01-20T19:55:13.321Z,47.10
2019-01-20T19:57:41.530Z,47.30
2019-01-20T20:00:11.421Z,53.80
2019-01-20T20:02:40.240Z,42.40
2019-01-20T20:05:10.221Z,44.70
2019-01-20T20:07:38.449Z,49.13
2019-01-20T20:10:13.952Z,45.03
2019-01-20T20:12:42.148Z,46.30
2019-01-20T20:15:11.841Z,41.80
2019-01-20T20:17:40.032Z,43.80
2019-01-20T20:20:09.788Z,42.30
2019-01-20T20:22:49.652Z,51.10
2019-01-20T20:25:21.487Z,40.80
2019-01-20T20:27:49.775Z,44.57
2019-01-20T20:30:19.527Z,40.57
2019-01-20T20:32:47.712Z,41.00
2019-01-20T20:35:15.909Z,48.83
2019-01-20T20:37:44.093Z,39.40
2019-01-20T20:40:16.249Z,41.40
2019-01-20T20:42:44.466Z,42.07
2019-01-20T20:45:16.772Z,44.53
2019-01-20T20:47:44.989Z,43.07
2019-01-20T20:50:14.187Z,42.03
2019-01-20T20:52:46.171Z,43.43
2019-01-20T20:55:12.525Z,40.70
2019-01-20T20:57:40.708Z,42.40
2019-01-20T21:00:13.357Z,41.03
2019-01-20T21:02:41.604Z,41.20
2019-01-20T21:05:09.829Z,53.37
2019-01-20T21:07:38.050Z,42.60
2019-01-20T21:10:10.550Z,41.17
2019-01-20T21:12:38.776Z,48.17
2019-01-20T21:15:08.488Z,44.97
2019-01-20T21:17:36.692Z,45.10
2019-01-20T21:20:06.449Z,46.10
2019-01-20T21:22:34.647Z,46.53
2019-01-20T21:25:02.873Z,41.03
2019-01-20T21:27:31.073Z,38.83
2019-01-20T21:29:59.248Z,47.50
2019-01-20T21:32:27.473Z,37.77
2019-01-20T21:34:55.701Z,48.23
2019-01-20T21:37:23.904Z,37.57
2019-01-20T21:39:52.079Z,42.20
2019-01-20T21:42:20.357Z,38.13
2019-01-20T21:44:48.536Z,40.73
2019-01-20T21:47:16.809Z,38.80
2019-01-20T21:49:45.028Z,36.43
2019-01-20T21:52:13.220Z,39.55
2019-01-20T21:54:41.437Z,42.75
2019-01-20T21:57:09.661Z,41.70
2019-01-20T21:59:37.839Z,48.63
2019-01-20T22:02:06.046Z,40.07
2019-01-20T22:04:34.232Z,37.07
2019-01-20T22:07:02.429Z,36.30
2019-01-20T22:09:30.662Z,38.23
2019-01-20T22:11:58.892Z,42.50
2019-01-20T22:14:27.083Z,36.67
2019-01-20T22:16:55.274Z,35.20
2019-01-20T22:19:23.468Z,41.07
2019-01-20T22:21:51.696Z,44.80
2019-01-20T22:24:19.880Z,37.27
2019-01-20T22:26:48.076Z,42.47
2019-01-20T22:29:16.292Z,37.97
2019-01-20T22:31:44.518Z,45.70
2019-01-20T22:34:12.775Z,44.10
2019-01-20T22:36:41.033Z,42.23
2019-01-20T22:39:09.244Z,40.53
2019-01-20T22:41:37.421Z,39.43
2019-01-20T22:44:05.640Z,42.17
2019-01-20T22:46:33.847Z,42.33
2019-01-20T22:49:02.040Z,44.90
2019-01-20T22:51:30.259Z,38.97
2019-01-20T22:53:58.452Z,40.60
2019-01-20T22:56:26.640Z,43.37
2019-01-20T22:58:54.839Z,50.60
2019-01-20T23:01:23.221Z,35.87
2019-01-20T23:03:51.421Z,40.73
2019-01-20T23:06:19.645Z,41.40
2019-01-20T23:08:47.921Z,37.40
2019-01-20T23:11:16.126Z,39.60
2019-01-20T23:13:44.343Z,39.40
2019-01-20T23:16:12.533Z,41.30
2019-01-20T23:18:40.753Z,35.30
2019-01-20T23:21:08.948Z,38.10
2019-01-20T23:23:37.136Z,37.67
2019-01-20T23:26:05.336Z,38.23
2019-01-20T23:28:33.547Z,41.90
2019-01-20T23:31:01.814Z,38.27
2019-01-20T23:33:30.042Z,45.17
2019-01-20T23:35:58.255Z,47.80
2019-01-20T23:38:26.496Z,41.95
2019-01-20T23:40:54.717Z,42.60
2019-01-20T23:43:22.937Z,42.10
2019-01-20T23:45:51.120Z,43.27
2019-01-20T23:48:19.351Z,46.80
2019-01-20T23:50:47.618Z,47.23
2019-01-20T23:53:15.849Z,43.60
2019-01-20T23:55:44.062Z,41.63
2019-01-20T23:58:12.320Z,42.13
